Aérodrome :
LOGIN :

S'inscrire | Disclaimer

   EN    FR    IT 

 










Légende :    VFR   VFR Marginal   IFR   IFR Intensif   IFR Très Intensif
Visi : 
Plafond : 
>= 8 km
>= 3000ft
5 à 8 km
1000 à 3000 ft
1500m à 5 km
500 à 1000 ft
800 à 1500m
200 à 500 ft
< 800m
< 200 ft
Symboles :   Orages  Brouillard  Fortes neiges  Fortes précipitations  Vent > 20 kt
SIGMETs :   Divers  Orages  Givrage  Turbulence  Onde Orograph.  Cendres Volcan.







- Altitude de l'aérodrome : 375 ft
- Code IATA : MST


EHBK - Maastricht Aachen

DERNIER METAR :
  • 151155Z AUTO 08005KT 040V130 9999 NCD 12/06 Q1024 NOSIG

METARs EXPIRÉS :
  • 151125Z AUTO 09005KT 060V120 9999 NCD 11/06 Q1024 NOSIG
  • 151055Z AUTO 09005KT 9999 NCD 11/06 Q1025 NOSIG
  • 151025Z AUTO 10006KT 9999 NCD 10/06 Q1025 NOSIG
  • 150955Z AUTO 09003KT 060V120 9999 NCD 10/06 Q1025 NOSIG
  • 150925Z AUTO VRB02KT 9999 NCD 09/05 Q1025 NOSIG

TAF TAF EHBK
Valide du 15 à 12h jusqu'au 16 à 18h UTC


151052Z 1512/1618 11005KT CAVOK
BECMG 1518/1521 6000
BECMG 1521/1524 4000 BR
PROB30
TEMPO 1600/1608 0800 BCFG
BECMG 1609/1612 CAVOK
Pas de NOTAMs connus pour ce terrain.



MET'MAP, la Météo Aéronautique d'un coup d'oeil ! - Copyright ORBIFLY Décembre 2007 - Disclaimer

ORBIFLY MET'MAP TEAM :

Programmation & Développement : Alexandra Zaïnal
Conception & Développement : Baudouin d'Aumeries
Co-Programmation & Développement : Marc-Olivier Méhu
Soutien technique & logistique : Manuel Goepfert

Contact : metmap@orbifly.com




SOURCES & CREDITS :

   NOAA